sensor_id;sensor_type;location;lat;lon;timestamp;P1;durP1;ratioP1;P2;durP2;ratioP2
74363;SDS011;62797;49.740;10.154;2023-11-19T00:01:28;17.45;;;9.18;;
74363;SDS011;62797;49.740;10.154;2023-11-19T00:03:55;19.83;;;9.82;;
74363;SDS011;62797;49.740;10.154;2023-11-19T00:06:21;20.33;;;10.07;;
74363;SDS011;62797;49.740;10.154;2023-11-19T00:08:47;26.63;;;8.90;;
74363;SDS011;62797;49.740;10.154;2023-11-19T00:11:13;17.25;;;9.27;;
74363;SDS011;62797;49.740;10.154;2023-11-19T00:13:41;25.15;;;10.38;;
74363;SDS011;62797;49.740;10.154;2023-11-19T00:16:07;16.92;;;9.27;;
74363;SDS011;62797;49.740;10.154;2023-11-19T00:18:34;21.52;;;10.88;;
74363;SDS011;62797;49.740;10.154;2023-11-19T00:23:27;19.45;;;10.45;;
74363;SDS011;62797;49.740;10.154;2023-11-19T00:25:53;17.88;;;9.07;;
74363;SDS011;62797;49.740;10.154;2023-11-19T00:28:19;15.57;;;9.17;;
74363;SDS011;62797;49.740;10.154;2023-11-19T00:30:44;19.23;;;8.97;;
74363;SDS011;62797;49.740;10.154;2023-11-19T00:33:10;16.33;;;8.88;;
74363;SDS011;62797;49.740;10.154;2023-11-19T00:35:37;15.50;;;8.45;;
74363;SDS011;62797;49.740;10.154;2023-11-19T00:38:03;13.30;;;8.60;;
74363;SDS011;62797;49.740;10.154;2023-11-19T00:40:29;17.92;;;9.40;;
74363;SDS011;62797;49.740;10.154;2023-11-19T00:42:55;14.35;;;8.73;;
74363;SDS011;62797;49.740;10.154;2023-11-19T00:45:23;16.10;;;9.48;;
74363;SDS011;62797;49.740;10.154;2023-11-19T00:47:49;19.17;;;10.13;;
74363;SDS011;62797;49.740;10.154;2023-11-19T00:50:14;15.77;;;9.73;;
74363;SDS011;62797;49.740;10.154;2023-11-19T00:52:40;16.77;;;10.13;;
74363;SDS011;62797;49.740;10.154;2023-11-19T00:55:06;18.02;;;9.48;;
74363;SDS011;62797;49.740;10.154;2023-11-19T00:57:32;17.27;;;9.98;;
74363;SDS011;62797;49.740;10.154;2023-11-19T00:59:59;17.45;;;10.57;;
74363;SDS011;62797;49.740;10.154;2023-11-19T01:02:25;22.65;;;9.73;;
74363;SDS011;62797;49.740;10.154;2023-11-19T01:04:53;17.38;;;9.65;;
74363;SDS011;62797;49.740;10.154;2023-11-19T01:07:19;16.15;;;9.82;;
74363;SDS011;62797;49.740;10.154;2023-11-19T01:09:49;13.27;;;7.90;;
74363;SDS011;62797;49.740;10.154;2023-11-19T01:12:14;15.50;;;8.30;;
74363;SDS011;62797;49.740;10.154;2023-11-19T01:14:41;15.38;;;7.60;;
74363;SDS011;62797;49.740;10.154;2023-11-19T01:17:07;13.48;;;8.32;;
74363;SDS011;62797;49.740;10.154;2023-11-19T01:19:34;15.10;;;8.95;;
74363;SDS011;62797;49.740;10.154;2023-11-19T01:22:02;13.63;;;7.77;;
74363;SDS011;62797;49.740;10.154;2023-11-19T01:24:28;15.80;;;7.53;;
74363;SDS011;62797;49.740;10.154;2023-11-19T01:26:56;14.65;;;7.70;;
74363;SDS011;62797;49.740;10.154;2023-11-19T01:29:22;17.63;;;8.38;;
74363;SDS011;62797;49.740;10.154;2023-11-19T01:31:48;18.07;;;8.07;;
74363;SDS011;62797;49.740;10.154;2023-11-19T01:34:16;14.40;;;7.63;;
74363;SDS011;62797;49.740;10.154;2023-11-19T01:36:42;11.33;;;8.00;;
74363;SDS011;62797;49.740;10.154;2023-11-19T01:39:07;17.63;;;8.70;;
74363;SDS011;62797;49.740;10.154;2023-11-19T01:41:36;12.37;;;7.53;;
74363;SDS011;62797;49.740;10.154;2023-11-19T01:44:05;16.30;;;8.43;;
74363;SDS011;62797;49.740;10.154;2023-11-19T01:46:31;15.05;;;7.68;;
74363;SDS011;62797;49.740;10.154;2023-11-19T01:49:01;12.15;;;8.15;;
74363;SDS011;62797;49.740;10.154;2023-11-19T01:51:28;20.45;;;8.43;;
74363;SDS011;62797;49.740;10.154;2023-11-19T01:53:54;10.55;;;6.40;;
74363;SDS011;62797;49.740;10.154;2023-11-19T01:56:25;22.38;;;9.32;;
74363;SDS011;62797;49.740;10.154;2023-11-19T01:58:53;13.40;;;7.07;;
74363;SDS011;62797;49.740;10.154;2023-11-19T02:01:20;13.95;;;7.63;;
74363;SDS011;62797;49.740;10.154;2023-11-19T02:03:46;12.18;;;7.53;;
74363;SDS011;62797;49.740;10.154;2023-11-19T02:06:12;12.45;;;7.85;;
74363;SDS011;62797;49.740;10.154;2023-11-19T02:08:38;16.95;;;9.35;;
74363;SDS011;62797;49.740;10.154;2023-11-19T02:11:05;11.55;;;7.57;;
74363;SDS011;62797;49.740;10.154;2023-11-19T02:13:32;9.68;;;6.00;;
74363;SDS011;62797;49.740;10.154;2023-11-19T02:15:58;11.68;;;5.85;;
74363;SDS011;62797;49.740;10.154;2023-11-19T02:18:25;12.35;;;6.45;;
74363;SDS011;62797;49.740;10.154;2023-11-19T02:20:54;13.80;;;7.53;;
74363;SDS011;62797;49.740;10.154;2023-11-19T02:23:20;12.02;;;7.88;;
74363;SDS011;62797;49.740;10.154;2023-11-19T02:28:24;13.52;;;7.18;;
74363;SDS011;62797;49.740;10.154;2023-11-19T02:30:50;12.63;;;7.63;;
74363;SDS011;62797;49.740;10.154;2023-11-19T02:33:16;11.35;;;6.60;;
74363;SDS011;62797;49.740;10.154;2023-11-19T02:35:41;14.40;;;7.90;;
74363;SDS011;62797;49.740;10.154;2023-11-19T02:38:07;13.10;;;7.38;;
74363;SDS011;62797;49.740;10.154;2023-11-19T02:40:34;13.00;;;7.50;;
74363;SDS011;62797;49.740;10.154;2023-11-19T02:42:59;16.13;;;7.78;;
74363;SDS011;62797;49.740;10.154;2023-11-19T02:45:25;10.32;;;7.25;;
74363;SDS011;62797;49.740;10.154;2023-11-19T02:47:52;14.40;;;7.30;;
74363;SDS011;62797;49.740;10.154;2023-11-19T02:50:19;14.82;;;7.07;;
74363;SDS011;62797;49.740;10.154;2023-11-19T02:52:51;12.57;;;5.78;;
74363;SDS011;62797;49.740;10.154;2023-11-19T02:55:18;12.55;;;6.63;;
74363;SDS011;62797;49.740;10.154;2023-11-19T02:57:44;14.32;;;6.85;;
74363;SDS011;62797;49.740;10.154;2023-11-19T03:00:19;13.10;;;6.75;;
74363;SDS011;62797;49.740;10.154;2023-11-19T03:02:50;13.82;;;7.45;;
74363;SDS011;62797;49.740;10.154;2023-11-19T03:05:38;14.95;;;6.53;;
74363;SDS011;62797;49.740;10.154;2023-11-19T03:08:06;18.25;;;6.07;;
74363;SDS011;62797;49.740;10.154;2023-11-19T03:10:32;11.20;;;6.53;;
74363;SDS011;62797;49.740;10.154;2023-11-19T03:12:59;7.78;;;4.97;;
74363;SDS011;62797;49.740;10.154;2023-11-19T03:15:27;9.50;;;4.72;;
74363;SDS011;62797;49.740;10.154;2023-11-19T03:17:52;8.47;;;4.67;;
74363;SDS011;62797;49.740;10.154;2023-11-19T03:20:21;8.48;;;5.00;;
74363;SDS011;62797;49.740;10.154;2023-11-19T03:22:48;8.20;;;4.60;;
74363;SDS011;62797;49.740;10.154;2023-11-19T03:25:15;8.73;;;4.35;;
74363;SDS011;62797;49.740;10.154;2023-11-19T03:27:41;9.83;;;4.50;;
74363;SDS011;62797;49.740;10.154;2023-11-19T03:30:07;7.93;;;4.90;;
74363;SDS011;62797;49.740;10.154;2023-11-19T03:32:37;5.80;;;3.60;;
74363;SDS011;62797;49.740;10.154;2023-11-19T03:35:04;4.20;;;3.22;;
74363;SDS011;62797;49.740;10.154;2023-11-19T03:37:32;4.68;;;2.88;;
74363;SDS011;62797;49.740;10.154;2023-11-19T03:39:58;3.72;;;2.33;;
74363;SDS011;62797;49.740;10.154;2023-11-19T03:42:27;3.63;;;1.95;;
74363;SDS011;62797;49.740;10.154;2023-11-19T03:44:53;3.10;;;2.10;;
74363;SDS011;62797;49.740;10.154;2023-11-19T03:47:19;2.28;;;2.08;;
74363;SDS011;62797;49.740;10.154;2023-11-19T03:49:48;1.95;;;1.80;;
74363;SDS011;62797;49.740;10.154;2023-11-19T03:52:15;1.27;;;1.17;;
74363;SDS011;62797;49.740;10.154;2023-11-19T03:54:42;1.30;;;1.20;;
74363;SDS011;62797;49.740;10.154;2023-11-19T03:57:17;1.25;;;1.10;;
74363;SDS011;62797;49.740;10.154;2023-11-19T03:59:43;1.17;;;1.08;;
74363;SDS011;62797;49.740;10.154;2023-11-19T04:02:09;1.30;;;1.15;;
74363;SDS011;62797;49.740;10.154;2023-11-19T04:04:35;2.77;;;1.57;;
74363;SDS011;62797;49.740;10.154;2023-11-19T04:07:02;1.58;;;1.27;;
74363;SDS011;62797;49.740;10.154;2023-11-19T04:09:30;1.38;;;1.27;;
74363;SDS011;62797;49.740;10.154;2023-11-19T04:11:58;1.42;;;1.30;;
74363;SDS011;62797;49.740;10.154;2023-11-19T04:14:25;1.50;;;1.25;;
74363;SDS011;62797;49.740;10.154;2023-11-19T04:16:52;5.50;;;1.20;;
74363;SDS011;62797;49.740;10.154;2023-11-19T04:21:44;2.00;;;1.63;;
74363;SDS011;62797;49.740;10.154;2023-11-19T04:24:10;1.52;;;1.25;;
74363;SDS011;62797;49.740;10.154;2023-11-19T04:26:48;3.95;;;2.13;;
74363;SDS011;62797;49.740;10.154;2023-11-19T04:29:14;1.92;;;1.38;;
74363;SDS011;62797;49.740;10.154;2023-11-19T04:31:44;1.73;;;1.60;;
74363;SDS011;62797;49.740;10.154;2023-11-19T04:34:11;2.42;;;1.33;;
74363;SDS011;62797;49.740;10.154;2023-11-19T04:36:37;2.95;;;1.80;;
74363;SDS011;62797;49.740;10.154;2023-11-19T04:39:06;2.13;;;1.77;;
74363;SDS011;62797;49.740;10.154;2023-11-19T04:41:35;2.17;;;1.95;;
74363;SDS011;62797;49.740;10.154;2023-11-19T04:44:01;3.15;;;2.08;;
74363;SDS011;62797;49.740;10.154;2023-11-19T04:46:27;2.47;;;2.00;;
74363;SDS011;62797;49.740;10.154;2023-11-19T04:48:52;3.13;;;2.50;;
74363;SDS011;62797;49.740;10.154;2023-11-19T04:51:18;3.53;;;2.40;;
74363;SDS011;62797;49.740;10.154;2023-11-19T04:53:52;3.37;;;2.57;;
74363;SDS011;62797;49.740;10.154;2023-11-19T04:56:18;3.90;;;2.20;;
74363;SDS011;62797;49.740;10.154;2023-11-19T04:58:47;4.07;;;2.72;;
74363;SDS011;62797;49.740;10.154;2023-11-19T05:01:14;3.30;;;2.65;;
74363;SDS011;62797;49.740;10.154;2023-11-19T05:03:45;3.83;;;3.22;;
74363;SDS011;62797;49.740;10.154;2023-11-19T05:06:11;3.60;;;2.72;;
74363;SDS011;62797;49.740;10.154;2023-11-19T05:08:37;3.37;;;2.87;;
74363;SDS011;62797;49.740;10.154;2023-11-19T05:11:02;6.10;;;3.57;;
74363;SDS011;62797;49.740;10.154;2023-11-19T05:13:29;4.38;;;3.13;;
74363;SDS011;62797;49.740;10.154;2023-11-19T05:15:54;5.63;;;3.93;;
74363;SDS011;62797;49.740;10.154;2023-11-19T05:18:20;4.47;;;3.30;;
74363;SDS011;62797;49.740;10.154;2023-11-19T05:20:46;3.85;;;2.95;;
74363;SDS011;62797;49.740;10.154;2023-11-19T05:23:12;4.15;;;3.20;;
74363;SDS011;62797;49.740;10.154;2023-11-19T05:25:38;4.13;;;3.45;;
74363;SDS011;62797;49.740;10.154;2023-11-19T05:28:04;3.95;;;2.95;;
74363;SDS011;62797;49.740;10.154;2023-11-19T05:30:29;3.60;;;2.80;;
74363;SDS011;62797;49.740;10.154;2023-11-19T05:32:55;2.47;;;2.28;;
74363;SDS011;62797;49.740;10.154;2023-11-19T05:35:21;3.85;;;3.10;;
74363;SDS011;62797;49.740;10.154;2023-11-19T05:37:47;4.10;;;2.90;;
74363;SDS011;62797;49.740;10.154;2023-11-19T05:40:14;2.75;;;2.28;;
74363;SDS011;62797;49.740;10.154;2023-11-19T05:42:41;5.73;;;2.70;;
74363;SDS011;62797;49.740;10.154;2023-11-19T05:45:07;3.75;;;3.30;;
74363;SDS011;62797;49.740;10.154;2023-11-19T05:47:34;2.47;;;2.17;;
74363;SDS011;62797;49.740;10.154;2023-11-19T05:49:59;2.30;;;2.10;;
74363;SDS011;62797;49.740;10.154;2023-11-19T05:52:25;2.63;;;2.43;;
74363;SDS011;62797;49.740;10.154;2023-11-19T05:54:53;2.30;;;2.10;;
74363;SDS011;62797;49.740;10.154;2023-11-19T05:57:19;2.53;;;2.03;;
74363;SDS011;62797;49.740;10.154;2023-11-19T05:59:50;5.68;;;2.13;;
74363;SDS011;62797;49.740;10.154;2023-11-19T06:02:16;1.60;;;1.50;;
74363;SDS011;62797;49.740;10.154;2023-11-19T06:04:45;2.20;;;1.70;;
74363;SDS011;62797;49.740;10.154;2023-11-19T06:07:14;4.10;;;2.10;;
74363;SDS011;62797;49.740;10.154;2023-11-19T06:09:40;1.95;;;1.65;;
74363;SDS011;62797;49.740;10.154;2023-11-19T06:12:06;2.55;;;2.05;;
74363;SDS011;62797;49.740;10.154;2023-11-19T06:14:32;5.75;;;2.00;;
74363;SDS011;62797;49.740;10.154;2023-11-19T06:16:58;2.20;;;1.80;;
74363;SDS011;62797;49.740;10.154;2023-11-19T06:21:50;6.20;;;2.40;;
74363;SDS011;62797;49.740;10.154;2023-11-19T06:24:16;7.35;;;2.38;;
74363;SDS011;62797;49.740;10.154;2023-11-19T06:26:42;3.05;;;2.70;;
74363;SDS011;62797;49.740;10.154;2023-11-19T06:29:08;2.67;;;2.17;;
74363;SDS011;62797;49.740;10.154;2023-11-19T06:31:34;3.75;;;3.20;;
74363;SDS011;62797;49.740;10.154;2023-11-19T06:33:59;3.40;;;3.10;;
74363;SDS011;62797;49.740;10.154;2023-11-19T06:36:25;2.67;;;2.47;;
74363;SDS011;62797;49.740;10.154;2023-11-19T06:38:51;3.33;;;2.85;;
74363;SDS011;62797;49.740;10.154;2023-11-19T06:41:17;2.92;;;2.65;;
74363;SDS011;62797;49.740;10.154;2023-11-19T06:43:43;3.15;;;2.63;;
74363;SDS011;62797;49.740;10.154;2023-11-19T06:46:15;3.10;;;2.58;;
74363;SDS011;62797;49.740;10.154;2023-11-19T06:48:42;3.15;;;2.28;;
74363;SDS011;62797;49.740;10.154;2023-11-19T06:51:09;3.22;;;2.65;;
74363;SDS011;62797;49.740;10.154;2023-11-19T06:53:37;3.65;;;2.97;;
74363;SDS011;62797;49.740;10.154;2023-11-19T06:56:05;3.05;;;2.75;;
74363;SDS011;62797;49.740;10.154;2023-11-19T06:58:42;2.83;;;2.35;;
74363;SDS011;62797;49.740;10.154;2023-11-19T07:01:08;3.25;;;2.88;;
74363;SDS011;62797;49.740;10.154;2023-11-19T07:03:34;3.13;;;2.47;;
74363;SDS011;62797;49.740;10.154;2023-11-19T07:06:00;3.28;;;2.90;;
74363;SDS011;62797;49.740;10.154;2023-11-19T07:08:26;3.57;;;2.63;;
74363;SDS011;62797;49.740;10.154;2023-11-19T07:10:52;2.80;;;2.57;;
74363;SDS011;62797;49.740;10.154;2023-11-19T07:13:18;3.83;;;2.47;;
74363;SDS011;62797;49.740;10.154;2023-11-19T07:15:47;6.95;;;2.63;;
74363;SDS011;62797;49.740;10.154;2023-11-19T07:18:13;2.97;;;2.38;;
74363;SDS011;62797;49.740;10.154;2023-11-19T07:20:45;3.63;;;2.17;;
74363;SDS011;62797;49.740;10.154;2023-11-19T07:23:11;2.42;;;2.22;;
74363;SDS011;62797;49.740;10.154;2023-11-19T07:25:37;3.22;;;2.40;;
74363;SDS011;62797;49.740;10.154;2023-11-19T07:28:03;2.90;;;1.77;;
74363;SDS011;62797;49.740;10.154;2023-11-19T07:30:30;2.45;;;1.58;;
74363;SDS011;62797;49.740;10.154;2023-11-19T07:32:56;3.33;;;1.80;;
74363;SDS011;62797;49.740;10.154;2023-11-19T07:35:22;2.23;;;2.03;;
74363;SDS011;62797;49.740;10.154;2023-11-19T07:37:48;3.90;;;1.67;;
74363;SDS011;62797;49.740;10.154;2023-11-19T07:40:15;3.33;;;2.15;;
74363;SDS011;62797;49.740;10.154;2023-11-19T07:42:40;4.57;;;1.43;;
74363;SDS011;62797;49.740;10.154;2023-11-19T07:45:06;3.57;;;1.70;;
74363;SDS011;62797;49.740;10.154;2023-11-19T07:47:35;7.35;;;1.77;;
74363;SDS011;62797;49.740;10.154;2023-11-19T07:50:03;3.22;;;1.77;;
74363;SDS011;62797;49.740;10.154;2023-11-19T07:52:29;2.80;;;1.58;;
74363;SDS011;62797;49.740;10.154;2023-11-19T07:54:55;1.97;;;1.47;;
74363;SDS011;62797;49.740;10.154;2023-11-19T07:57:21;1.55;;;1.42;;
74363;SDS011;62797;49.740;10.154;2023-11-19T07:59:49;2.10;;;1.95;;
74363;SDS011;62797;49.740;10.154;2023-11-19T08:02:15;1.77;;;1.67;;
74363;SDS011;62797;49.740;10.154;2023-11-19T08:04:40;2.90;;;2.40;;
74363;SDS011;62797;49.740;10.154;2023-11-19T08:07:10;2.72;;;1.75;;
74363;SDS011;62797;49.740;10.154;2023-11-19T08:09:36;1.80;;;1.55;;
74363;SDS011;62797;49.740;10.154;2023-11-19T08:12:02;4.75;;;3.03;;
74363;SDS011;62797;49.740;10.154;2023-11-19T08:14:29;2.53;;;2.05;;
74363;SDS011;62797;49.740;10.154;2023-11-19T08:16:54;4.10;;;2.83;;
74363;SDS011;62797;49.740;10.154;2023-11-19T08:19:20;2.97;;;2.63;;
74363;SDS011;62797;49.740;10.154;2023-11-19T08:21:46;2.73;;;2.13;;
74363;SDS011;62797;49.740;10.154;2023-11-19T08:24:11;3.77;;;2.93;;
74363;SDS011;62797;49.740;10.154;2023-11-19T08:26:37;4.95;;;2.85;;
74363;SDS011;62797;49.740;10.154;2023-11-19T08:29:03;3.65;;;2.50;;
74363;SDS011;62797;49.740;10.154;2023-11-19T08:31:29;4.63;;;3.10;;
74363;SDS011;62797;49.740;10.154;2023-11-19T08:33:54;3.53;;;2.50;;
74363;SDS011;62797;49.740;10.154;2023-11-19T08:36:20;11.03;;;2.50;;
74363;SDS011;62797;49.740;10.154;2023-11-19T08:38:46;6.65;;;2.85;;
74363;SDS011;62797;49.740;10.154;2023-11-19T08:41:13;3.47;;;2.67;;
74363;SDS011;62797;49.740;10.154;2023-11-19T08:43:38;4.80;;;3.03;;
74363;SDS011;62797;49.740;10.154;2023-11-19T08:48:37;4.07;;;3.00;;
74363;SDS011;62797;49.740;10.154;2023-11-19T08:51:03;3.53;;;2.50;;
74363;SDS011;62797;49.740;10.154;2023-11-19T08:53:29;7.60;;;3.13;;
74363;SDS011;62797;49.740;10.154;2023-11-19T08:55:58;5.33;;;2.83;;
74363;SDS011;62797;49.740;10.154;2023-11-19T08:58:23;9.13;;;2.30;;
74363;SDS011;62797;49.740;10.154;2023-11-19T09:00:49;8.27;;;2.50;;
74363;SDS011;62797;49.740;10.154;2023-11-19T09:03:15;2.87;;;2.40;;
74363;SDS011;62797;49.740;10.154;2023-11-19T09:05:40;3.33;;;2.47;;
74363;SDS011;62797;49.740;10.154;2023-11-19T09:08:06;1.98;;;1.75;;
74363;SDS011;62797;49.740;10.154;2023-11-19T09:10:35;6.63;;;2.13;;
74363;SDS011;62797;49.740;10.154;2023-11-19T09:13:00;2.63;;;2.13;;
74363;SDS011;62797;49.740;10.154;2023-11-19T09:15:28;4.00;;;1.97;;
74363;SDS011;62797;49.740;10.154;2023-11-19T09:17:54;3.65;;;1.88;;
74363;SDS011;62797;49.740;10.154;2023-11-19T09:20:20;6.20;;;1.77;;
74363;SDS011;62797;49.740;10.154;2023-11-19T09:22:46;3.58;;;1.80;;
74363;SDS011;62797;49.740;10.154;2023-11-19T09:25:14;2.33;;;2.13;;
74363;SDS011;62797;49.740;10.154;2023-11-19T09:27:43;10.77;;;1.85;;
74363;SDS011;62797;49.740;10.154;2023-11-19T09:30:09;4.55;;;1.98;;
74363;SDS011;62797;49.740;10.154;2023-11-19T09:32:35;2.85;;;1.92;;
74363;SDS011;62797;49.740;10.154;2023-11-19T09:35:03;6.72;;;2.42;;
74363;SDS011;62797;49.740;10.154;2023-11-19T09:39:54;5.38;;;2.15;;
74363;SDS011;62797;49.740;10.154;2023-11-19T09:42:22;2.30;;;1.70;;
74363;SDS011;62797;49.740;10.154;2023-11-19T09:44:55;6.03;;;2.70;;
74363;SDS011;62797;49.740;10.154;2023-11-19T09:47:28;1.90;;;1.70;;
74363;SDS011;62797;49.740;10.154;2023-11-19T09:49:55;2.88;;;1.75;;
74363;SDS011;62797;49.740;10.154;2023-11-19T09:52:33;4.72;;;1.55;;
74363;SDS011;62797;49.740;10.154;2023-11-19T09:54:59;9.38;;;2.50;;
74363;SDS011;62797;49.740;10.154;2023-11-19T09:57:26;12.43;;;2.43;;
74363;SDS011;62797;49.740;10.154;2023-11-19T09:59:54;1.58;;;1.45;;
74363;SDS011;62797;49.740;10.154;2023-11-19T10:02:20;7.03;;;1.38;;
74363;SDS011;62797;49.740;10.154;2023-11-19T10:04:46;6.10;;;1.92;;
74363;SDS011;62797;49.740;10.154;2023-11-19T10:07:16;4.22;;;1.65;;
74363;SDS011;62797;49.740;10.154;2023-11-19T10:09:47;1.92;;;1.58;;
74363;SDS011;62797;49.740;10.154;2023-11-19T10:12:13;2.80;;;1.57;;
74363;SDS011;62797;49.740;10.154;2023-11-19T10:14:39;4.20;;;1.40;;
74363;SDS011;62797;49.740;10.154;2023-11-19T10:17:07;5.22;;;1.40;;
74363;SDS011;62797;49.740;10.154;2023-11-19T10:22:05;6.60;;;1.50;;
74363;SDS011;62797;49.740;10.154;2023-11-19T10:24:31;1.83;;;1.15;;
74363;SDS011;62797;49.740;10.154;2023-11-19T10:27:03;8.50;;;1.50;;
74363;SDS011;62797;49.740;10.154;2023-11-19T10:29:36;5.65;;;2.15;;
74363;SDS011;62797;49.740;10.154;2023-11-19T10:32:02;2.72;;;1.38;;
74363;SDS011;62797;49.740;10.154;2023-11-19T10:34:29;4.68;;;0.98;;
74363;SDS011;62797;49.740;10.154;2023-11-19T10:36:55;2.42;;;0.77;;
74363;SDS011;62797;49.740;10.154;2023-11-19T10:39:21;3.53;;;1.00;;
74363;SDS011;62797;49.740;10.154;2023-11-19T10:41:48;2.55;;;1.08;;
74363;SDS011;62797;49.740;10.154;2023-11-19T10:44:30;8.33;;;1.37;;
74363;SDS011;62797;49.740;10.154;2023-11-19T10:47:01;1.52;;;1.00;;
74363;SDS011;62797;49.740;10.154;2023-11-19T10:49:26;1.63;;;1.10;;
74363;SDS011;62797;49.740;10.154;2023-11-19T10:51:52;1.47;;;1.20;;
74363;SDS011;62797;49.740;10.154;2023-11-19T10:54:22;4.82;;;1.33;;
74363;SDS011;62797;49.740;10.154;2023-11-19T10:56:53;6.75;;;1.90;;
74363;SDS011;62797;49.740;10.154;2023-11-19T10:59:23;3.00;;;1.20;;
74363;SDS011;62797;49.740;10.154;2023-11-19T11:01:53;1.75;;;1.55;;
74363;SDS011;62797;49.740;10.154;2023-11-19T11:04:23;3.92;;;1.33;;
74363;SDS011;62797;49.740;10.154;2023-11-19T11:06:56;1.42;;;1.33;;
74363;SDS011;62797;49.740;10.154;2023-11-19T11:09:28;3.63;;;1.50;;
74363;SDS011;62797;49.740;10.154;2023-11-19T11:11:55;7.60;;;1.80;;
74363;SDS011;62797;49.740;10.154;2023-11-19T11:14:22;2.20;;;1.30;;
74363;SDS011;62797;49.740;10.154;2023-11-19T11:16:50;7.55;;;2.70;;
74363;SDS011;62797;49.740;10.154;2023-11-19T11:19:18;6.00;;;3.00;;
74363;SDS011;62797;49.740;10.154;2023-11-19T11:21:45;8.90;;;2.78;;
74363;SDS011;62797;49.740;10.154;2023-11-19T11:27:04;10.48;;;2.45;;
74363;SDS011;62797;49.740;10.154;2023-11-19T11:35:30;3.92;;;1.73;;
74363;SDS011;62797;49.740;10.154;2023-11-19T11:38:02;5.00;;;2.15;;
74363;SDS011;62797;49.740;10.154;2023-11-19T11:40:34;10.82;;;2.92;;
74363;SDS011;62797;49.740;10.154;2023-11-19T11:43:01;8.57;;;2.58;;
74363;SDS011;62797;49.740;10.154;2023-11-19T11:45:35;8.48;;;2.30;;
74363;SDS011;62797;49.740;10.154;2023-11-19T11:48:11;7.07;;;2.45;;
74363;SDS011;62797;49.740;10.154;2023-11-19T11:50:47;3.78;;;1.88;;
74363;SDS011;62797;49.740;10.154;2023-11-19T11:53:18;7.88;;;2.72;;
74363;SDS011;62797;49.740;10.154;2023-11-19T11:58:17;7.55;;;2.60;;
74363;SDS011;62797;49.740;10.154;2023-11-19T12:00:46;6.07;;;1.83;;
74363;SDS011;62797;49.740;10.154;2023-11-19T12:03:12;2.50;;;1.77;;
74363;SDS011;62797;49.740;10.154;2023-11-19T12:05:41;7.30;;;2.63;;
74363;SDS011;62797;49.740;10.154;2023-11-19T12:08:10;5.10;;;1.90;;
74363;SDS011;62797;49.740;10.154;2023-11-19T12:13:15;5.80;;;2.75;;
74363;SDS011;62797;49.740;10.154;2023-11-19T12:18:28;1.63;;;1.17;;
74363;SDS011;62797;49.740;10.154;2023-11-19T12:20:56;2.35;;;1.30;;
74363;SDS011;62797;49.740;10.154;2023-11-19T12:23:22;7.65;;;1.70;;
74363;SDS011;62797;49.740;10.154;2023-11-19T12:25:49;3.70;;;1.52;;
74363;SDS011;62797;49.740;10.154;2023-11-19T12:28:15;3.03;;;1.45;;
74363;SDS011;62797;49.740;10.154;2023-11-19T12:30:44;5.90;;;1.65;;
74363;SDS011;62797;49.740;10.154;2023-11-19T12:33:11;3.50;;;2.15;;
74363;SDS011;62797;49.740;10.154;2023-11-19T12:35:44;4.10;;;1.73;;
74363;SDS011;62797;49.740;10.154;2023-11-19T12:38:19;4.05;;;1.33;;
74363;SDS011;62797;49.740;10.154;2023-11-19T12:43:39;5.05;;;1.77;;
74363;SDS011;62797;49.740;10.154;2023-11-19T12:46:21;4.30;;;1.85;;
74363;SDS011;62797;49.740;10.154;2023-11-19T12:48:48;3.78;;;1.50;;
74363;SDS011;62797;49.740;10.154;2023-11-19T12:51:15;3.72;;;1.77;;
74363;SDS011;62797;49.740;10.154;2023-11-19T12:53:49;9.40;;;2.13;;
74363;SDS011;62797;49.740;10.154;2023-11-19T12:56:19;7.20;;;1.40;;
74363;SDS011;62797;49.740;10.154;2023-11-19T12:58:47;5.53;;;2.05;;
74363;SDS011;62797;49.740;10.154;2023-11-19T13:01:17;5.30;;;1.70;;
74363;SDS011;62797;49.740;10.154;2023-11-19T13:03:46;8.63;;;2.15;;
74363;SDS011;62797;49.740;10.154;2023-11-19T13:06:14;4.93;;;1.60;;
74363;SDS011;62797;49.740;10.154;2023-11-19T13:08:41;4.10;;;1.88;;
74363;SDS011;62797;49.740;10.154;2023-11-19T13:11:14;4.53;;;2.10;;
74363;SDS011;62797;49.740;10.154;2023-11-19T13:13:59;5.97;;;1.65;;
74363;SDS011;62797;49.740;10.154;2023-11-19T13:16:35;3.65;;;2.03;;
74363;SDS011;62797;49.740;10.154;2023-11-19T13:19:02;10.63;;;2.10;;
74363;SDS011;62797;49.740;10.154;2023-11-19T13:21:28;7.97;;;2.10;;
74363;SDS011;62797;49.740;10.154;2023-11-19T13:23:55;4.93;;;1.52;;
74363;SDS011;62797;49.740;10.154;2023-11-19T13:26:21;1.85;;;1.10;;
74363;SDS011;62797;49.740;10.154;2023-11-19T13:28:47;11.57;;;2.22;;
74363;SDS011;62797;49.740;10.154;2023-11-19T13:31:13;3.33;;;1.57;;
74363;SDS011;62797;49.740;10.154;2023-11-19T13:33:40;6.03;;;1.80;;
74363;SDS011;62797;49.740;10.154;2023-11-19T13:38:33;4.88;;;1.38;;
74363;SDS011;62797;49.740;10.154;2023-11-19T13:41:03;2.17;;;1.23;;
74363;SDS011;62797;49.740;10.154;2023-11-19T13:43:32;3.28;;;1.70;;
74363;SDS011;62797;49.740;10.154;2023-11-19T13:45:57;6.93;;;1.27;;
74363;SDS011;62797;49.740;10.154;2023-11-19T13:48:26;2.55;;;1.20;;
74363;SDS011;62797;49.740;10.154;2023-11-19T13:50:55;7.65;;;1.33;;
74363;SDS011;62797;49.740;10.154;2023-11-19T13:53:21;1.17;;;0.90;;
74363;SDS011;62797;49.740;10.154;2023-11-19T13:55:48;1.88;;;1.15;;
74363;SDS011;62797;49.740;10.154;2023-11-19T13:58:13;4.23;;;1.50;;
74363;SDS011;62797;49.740;10.154;2023-11-19T14:00:41;3.67;;;1.20;;
74363;SDS011;62797;49.740;10.154;2023-11-19T14:03:08;9.35;;;1.73;;
74363;SDS011;62797;49.740;10.154;2023-11-19T14:05:37;9.98;;;2.70;;
74363;SDS011;62797;49.740;10.154;2023-11-19T14:08:04;7.28;;;1.55;;
74363;SDS011;62797;49.740;10.154;2023-11-19T14:10:39;7.18;;;2.35;;
74363;SDS011;62797;49.740;10.154;2023-11-19T14:13:07;7.82;;;1.73;;
74363;SDS011;62797;49.740;10.154;2023-11-19T14:15:33;6.50;;;1.10;;
74363;SDS011;62797;49.740;10.154;2023-11-19T14:17:59;6.95;;;1.70;;
74363;SDS011;62797;49.740;10.154;2023-11-19T14:20:24;4.43;;;1.70;;
74363;SDS011;62797;49.740;10.154;2023-11-19T14:22:50;3.40;;;1.50;;
74363;SDS011;62797;49.740;10.154;2023-11-19T14:25:17;3.47;;;1.52;;
74363;SDS011;62797;49.740;10.154;2023-11-19T14:27:44;4.45;;;1.80;;
74363;SDS011;62797;49.740;10.154;2023-11-19T14:30:13;7.88;;;2.10;;
74363;SDS011;62797;49.740;10.154;2023-11-19T14:32:40;2.53;;;1.77;;
74363;SDS011;62797;49.740;10.154;2023-11-19T14:35:16;2.95;;;1.23;;
74363;SDS011;62797;49.740;10.154;2023-11-19T14:37:42;5.13;;;1.63;;
74363;SDS011;62797;49.740;10.154;2023-11-19T14:40:08;5.28;;;1.77;;
74363;SDS011;62797;49.740;10.154;2023-11-19T14:42:36;5.20;;;1.52;;
74363;SDS011;62797;49.740;10.154;2023-11-19T14:45:02;3.05;;;1.85;;
74363;SDS011;62797;49.740;10.154;2023-11-19T14:47:28;10.65;;;3.85;;
74363;SDS011;62797;49.740;10.154;2023-11-19T14:49:55;7.20;;;2.10;;
74363;SDS011;62797;49.740;10.154;2023-11-19T14:52:22;4.63;;;1.90;;
74363;SDS011;62797;49.740;10.154;2023-11-19T14:55:01;6.35;;;1.90;;
74363;SDS011;62797;49.740;10.154;2023-11-19T14:57:27;4.30;;;1.63;;
74363;SDS011;62797;49.740;10.154;2023-11-19T14:59:53;3.33;;;1.50;;
74363;SDS011;62797;49.740;10.154;2023-11-19T15:02:18;5.67;;;1.90;;
74363;SDS011;62797;49.740;10.154;2023-11-19T15:04:47;7.07;;;2.50;;
74363;SDS011;62797;49.740;10.154;2023-11-19T15:07:13;7.85;;;1.60;;
74363;SDS011;62797;49.740;10.154;2023-11-19T15:09:39;3.43;;;1.57;;
74363;SDS011;62797;49.740;10.154;2023-11-19T15:12:05;5.23;;;1.33;;